Terminal Aerodrome Forecast
Issued by NWS

Home | Current Version | Previous Version | Text Only | Print | Product List | Glossary On
Versions: 1 2 3 4 5 6 7 8 9 10 11 12 13 14 15 16 17 18 19
096
FTUS46 KSEW 242342
TAFBFI
TAF
KBFI 242342Z 2500/2524 31008KT P6SM SKC
     FM250300 VRB03KT P6SM SKC
     FM251900 30005KT P6SM SCT250=

USA.gov is the U.S. government's official web portal to all federal, state and local government web resources and services.